Time;durP1;ratioP1;P1;durP2;ratioP2;P2;SDS_P1;SDS_P2;PMS_P1;PMS_P2;Temp;Humidity;BMP_temperature;BMP_pressure;BME280_temperature;BME280_humidity;BME280_pressure;Samples;Min_cycle;Max_cycle;Signal;HPM_P1;HPM_P2
2023/06/09 00:00:11;;;;;;;16.13;14.70;;;;;;;-141.84;85.96;20350.41;5014119;28;20202;-76
2023/06/09 00:02:41;;;;;;;16.77;15.32;;;;;;;-141.84;86.24;20319.94;4999905;28;20703;-76
2023/06/09 00:05:09;;;;;;;17.08;15.45;;;;;;;-141.84;86.44;20350.41;4993976;28;20674;-77
2023/06/09 00:07:39;;;;;;;18.75;16.83;;;;;;;-141.84;86.85;20326.03;4993840;28;20234;-76
2023/06/09 00:10:08;;;;;;;18.92;17.08;;;;;;;-141.84;87.12;20330.09;4994344;28;20446;-75
2023/06/09 00:12:37;;;;;;;18.38;16.67;;;;;;;-141.84;86.57;20372.78;4994456;28;20666;-76
2023/06/09 00:15:07;;;;;;;18.38;16.70;;;;;;;-141.84;85.98;20313.84;4994411;28;20234;-77
2023/06/09 00:17:38;;;;;;;18.00;16.50;;;;;;;-141.84;85.88;20399.19;4994005;28;20207;-75
2023/06/09 00:20:09;;;;;;;17.48;15.98;;;;;;;-141.84;85.96;20340.25;4994075;28;20226;-77
2023/06/09 00:22:42;;;;;;;18.13;16.33;;;;;;;-141.84;85.87;20344.31;4994554;28;20279;-75
2023/06/09 00:25:12;;;;;;;17.58;16.08;;;;;;;-141.84;85.38;20346.34;4993638;28;20660;-76
2023/06/09 00:27:43;;;;;;;18.35;16.75;;;;;;;-141.84;85.39;20324.00;4994139;28;20184;-77
2023/06/09 00:30:14;;;;;;;19.08;17.35;;;;;;;-141.84;85.68;20336.19;4993804;28;20689;-75
2023/06/09 00:33:01;;;;;;;18.98;17.15;;;;;;;-141.84;85.97;20332.13;5009195;28;20207;-76
2023/06/09 00:35:30;;;;;;;19.80;18.00;;;;;;;-141.84;86.22;20336.19;5012946;28;20207;-76
2023/06/09 00:38:00;;;;;;;19.73;17.83;;;;;;;-141.84;86.57;20303.66;5012922;28;20215;-76
2023/06/09 00:40:29;;;;;;;20.75;18.75;;;;;;;-141.84;86.73;20291.47;5012777;28;20210;-77
2023/06/09 00:42:59;;;;;;;20.85;18.85;;;;;;;-141.84;86.27;20299.59;5012374;28;20329;-76
2023/06/09 00:45:27;;;;;;;19.73;17.83;;;;;;;-141.84;86.78;20299.59;5010362;28;20194;-76
2023/06/09 00:47:56;;;;;;;19.88;18.10;;;;;;;-141.84;86.64;20328.06;4992891;28;20254;-77
2023/06/09 00:50:25;;;;;;;19.40;17.65;;;;;;;-141.84;86.77;20287.41;4992832;28;20199;-76
2023/06/09 00:52:55;;;;;;;19.70;17.70;;;;;;;-141.84;87.05;20307.72;4992984;28;20212;-76
2023/06/09 00:55:26;;;;;;;18.90;17.23;;;;;;;-141.84;87.38;20287.41;4992712;28;20294;-75
2023/06/09 00:57:56;;;;;;;20.20;18.30;;;;;;;-141.84;87.20;20275.22;4992554;28;20212;-75
2023/06/09 01:00:26;;;;;;;20.30;18.42;;;;;;;-141.84;87.44;20283.34;4999058;28;20200;-77
2023/06/09 01:02:56;;;;;;;21.02;19.13;;;;;;;-141.84;87.42;20277.25;5000980;28;20208;-75
2023/06/09 01:05:26;;;;;;;20.73;18.85;;;;;;;-141.84;86.92;20311.78;4992879;28;20298;-76
2023/06/09 01:07:58;;;;;;;20.98;18.90;;;;;;;-141.84;86.94;20263.00;4992511;28;20194;-76
2023/06/09 01:10:35;;;;;;;21.05;19.02;;;;;;;-141.84;86.61;20285.38;4992838;28;20220;-76
2023/06/09 01:13:13;;;;;;;21.73;19.73;;;;;;;-141.84;86.97;20273.19;4993346;28;20748;-75
2023/06/09 01:15:48;;;;;;;20.65;18.75;;;;;;;-141.84;87.49;20258.94;4992718;28;20188;-78
2023/06/09 01:18:17;;;;;;;22.00;20.05;;;;;;;-141.84;87.32;20267.09;4992603;28;20203;-76
2023/06/09 01:21:00;;;;;;;21.27;19.27;;;;;;;-141.84;86.98;20275.22;4992233;28;20693;-75
2023/06/09 01:23:40;;;;;;;21.20;19.17;;;;;;;-141.84;87.05;20271.16;4992407;28;20266;-76
2023/06/09 01:26:11;;;;;;;22.40;20.15;;;;;;;-141.84;86.55;20275.22;4992797;28;20191;-76
2023/06/09 01:28:40;;;;;;;22.30;20.33;;;;;;;-141.84;86.32;20271.16;4992425;28;20199;-77
2023/06/09 01:31:14;;;;;;;22.25;20.10;;;;;;;-141.84;86.78;20236.59;4992681;28;20314;-74
2023/06/09 01:33:44;;;;;;;22.13;20.00;;;;;;;-141.84;87.58;20256.91;5011506;28;20191;-77
2023/06/09 01:36:15;;;;;;;22.08;20.10;;;;;;;-141.84;87.95;20240.66;5011858;28;20294;-75
2023/06/09 01:38:44;;;;;;;23.98;21.77;;;;;;;-141.84;88.42;20258.94;5011895;28;20191;-76
2023/06/09 01:41:14;;;;;;;25.63;23.08;;;;;;;-141.84;87.92;20232.53;5011958;28;20234;-78
2023/06/09 01:43:43;;;;;;;23.42;21.02;;;;;;;-141.84;88.31;20212.19;4993818;28;20243;-78
2023/06/09 01:46:11;;;;;;;25.45;23.00;;;;;;;-141.84;88.29;20234.56;4992085;28;20282;-77
2023/06/09 01:48:49;;;;;;;25.38;22.88;;;;;;;-141.84;87.39;20256.91;4992464;28;20208;-76
2023/06/09 01:51:25;;;;;;;24.50;22.35;;;;;;;-141.84;86.74;20283.34;4992152;28;20219;-76
2023/06/09 01:53:59;;;;;;;22.80;20.80;;;;;;;-141.84;85.45;20305.69;4991952;28;20229;-76
2023/06/09 01:56:37;;;;;;;23.95;21.55;;;;;;;-141.84;85.98;20297.56;4991887;28;20195;-77
2023/06/09 01:59:09;;;;;;;24.52;22.02;;;;;;;-141.84;85.41;20279.28;4991580;28;20255;-76
2023/06/09 02:01:39;;;;;;;23.83;21.52;;;;;;;-141.84;85.63;20297.56;4994334;28;20202;-76
2023/06/09 02:04:12;;;;;;;24.05;21.77;;;;;;;-141.84;86.02;20307.72;4991839;28;20277;-77
2023/06/09 02:06:42;;;;;;;23.20;20.83;;;;;;;-141.84;86.43;20254.88;4991572;28;20203;-75
2023/06/09 02:09:12;;;;;;;24.00;21.90;;;;;;;-141.84;87.08;20236.59;4991486;28;20282;-76
2023/06/09 02:11:42;;;;;;;25.45;23.05;;;;;;;-141.84;87.46;20232.53;4991186;28;20778;-76
2023/06/09 02:14:10;;;;;;;26.35;23.80;;;;;;;-141.84;87.69;20248.78;4991633;28;20270;-76
2023/06/09 02:16:39;;;;;;;24.90;22.42;;;;;;;-141.84;87.49;20240.66;4991092;28;20746;-75
2023/06/09 02:19:08;;;;;;;25.35;23.13;;;;;;;-141.84;86.97;20252.84;4991970;28;20896;-76
2023/06/09 02:21:36;;;;;;;25.38;22.88;;;;;;;-141.84;86.18;20260.97;4992183;28;20229;-76
2023/06/09 02:24:06;;;;;;;25.35;23.05;;;;;;;-141.84;86.87;20271.16;4991485;28;20822;-77
2023/06/09 02:26:35;;;;;;;26.77;22.67;;;;;;;-141.84;87.18;20228.47;4991508;28;20210;-77
2023/06/09 02:29:05;;;;;;;24.02;21.52;;;;;;;-141.84;87.70;20191.88;4991625;28;20266;-76
2023/06/09 02:31:34;;;;;;;25.35;22.80;;;;;;;-141.84;88.33;20212.19;4994754;28;20207;-76
2023/06/09 02:34:02;;;;;;;23.52;21.25;;;;;;;-141.84;88.40;20216.25;5013013;28;20221;-76
2023/06/09 02:36:31;;;;;;;23.58;21.27;;;;;;;-141.84;88.67;20222.38;5012624;28;20213;-77
2023/06/09 02:38:59;;;;;;;23.88;21.58;;;;;;;-141.84;88.19;20212.19;5012880;28;20253;-76
2023/06/09 02:41:28;;;;;;;24.38;22.13;;;;;;;-141.84;88.48;20179.69;5011932;28;20289;-76
2023/06/09 02:43:56;;;;;;;24.80;22.48;;;;;;;-141.84;88.74;20210.16;5003465;28;20262;-76
2023/06/09 02:46:26;;;;;;;23.17;20.75;;;;;;;-141.84;88.46;20214.22;4991720;28;20250;-75
2023/06/09 02:48:55;;;;;;;23.75;21.45;;;;;;;-141.84;88.29;20244.72;4992634;28;20285;-75
2023/06/09 02:51:23;;;;;;;22.55;20.45;;;;;;;-141.84;87.90;20226.44;4994866;28;20651;-76
2023/06/09 02:53:52;;;;;;;22.92;20.63;;;;;;;-141.84;87.72;20232.53;4994527;28;20290;-76
2023/06/09 02:56:20;;;;;;;22.33;20.33;;;;;;;-141.84;87.64;20230.50;4995142;28;20269;-79
2023/06/09 02:58:50;;;;;;;22.95;20.75;;;;;;;-141.84;86.65;20214.22;5000947;28;20227;-76
2023/06/09 03:01:19;;;;;;;22.13;20.23;;;;;;;-141.84;86.55;20200.00;4995863;28;20239;-77
2023/06/09 03:03:49;;;;;;;23.60;21.30;;;;;;;-141.84;87.02;20226.44;4998056;28;20203;-76
2023/06/09 03:06:19;;;;;;;21.75;19.73;;;;;;;-141.84;86.66;20240.66;4994806;28;20246;-75
2023/06/09 03:08:48;;;;;;;22.50;20.40;;;;;;;-141.84;86.79;20267.09;4991470;28;20188;-77
2023/06/09 03:11:16;;;;;;;23.25;20.92;;;;;;;-141.84;86.47;20254.88;4990854;28;20283;-77
2023/06/09 03:13:45;;;;;;;24.90;22.38;;;;;;;-141.84;86.84;20212.19;4991011;28;20299;-76
2023/06/09 03:16:14;;;;;;;23.98;21.67;;;;;;;-141.84;86.57;20263.00;4990493;28;20227;-77
2023/06/09 03:18:42;;;;;;;24.25;22.10;;;;;;;-141.84;85.86;20275.22;4992544;28;20223;-75
2023/06/09 03:21:13;;;;;;;24.20;21.98;;;;;;;-141.84;85.98;20250.81;4995075;28;20237;-76
2023/06/09 03:23:42;;;;;;;25.23;22.83;;;;;;;-141.84;86.17;20265.03;4994622;28;20226;-75
2023/06/09 03:26:10;;;;;;;26.35;24.05;;;;;;;-141.84;86.06;20248.78;4994267;28;20230;-76
2023/06/09 03:28:39;;;;;;;26.15;23.45;;;;;;;-141.84;85.80;20297.56;4994349;28;20278;-77
2023/06/09 03:31:07;;;;;;;24.80;22.48;;;;;;;-141.84;85.68;20212.19;4994300;28;20235;-76
2023/06/09 03:33:36;;;;;;;26.23;23.70;;;;;;;-141.84;84.69;20315.88;5013874;28;20203;-76
2023/06/09 03:36:05;;;;;;;25.20;22.90;;;;;;;-141.84;84.58;20275.22;4996974;28;20296;-76
2023/06/09 03:38:35;;;;;;;25.63;23.17;;;;;;;-141.84;85.15;20289.44;4994354;28;20227;-76
2023/06/09 03:41:04;;;;;;;25.27;22.60;;;;;;;-141.84;85.34;20265.03;4993619;28;20298;-77
2023/06/09 03:43:32;;;;;;;25.10;22.70;;;;;;;-141.84;85.39;20293.50;4993903;28;20231;-76
2023/06/09 03:46:01;;;;;;;25.75;23.13;;;;;;;-141.84;85.44;20289.44;4993783;28;20207;-77
2023/06/09 03:48:30;;;;;;;24.55;22.17;;;;;;;-141.84;85.60;20254.88;4993670;28;20605;-77
2023/06/09 03:50:58;;;;;;;26.58;23.88;;;;;;;-141.84;85.43;20273.19;4993841;28;20203;-75
2023/06/09 03:53:27;;;;;;;26.50;23.98;;;;;;;-141.84;85.10;20301.63;4993904;28;20243;-75
2023/06/09 03:55:58;;;;;;;25.17;22.58;;;;;;;-141.84;84.28;20315.88;4993753;28;20211;-76
2023/06/09 03:58:27;;;;;;;25.92;23.48;;;;;;;-141.84;84.61;20301.63;4993732;28;20303;-75
2023/06/09 04:00:56;;;;;;;24.85;22.33;;;;;;;-141.84;85.02;20307.72;4992991;28;20679;-75
2023/06/09 04:03:25;;;;;;;25.25;22.85;;;;;;;-141.84;84.99;20281.31;4996273;28;20254;-75
2023/06/09 04:05:53;;;;;;;27.60;24.83;;;;;;;-141.84;84.51;20340.25;4993570;28;20662;-76
2023/06/09 04:08:22;;;;;;;26.17;23.67;;;;;;;-141.84;84.12;20348.38;4993491;28;20286;-76
2023/06/09 04:10:51;;;;;;;27.10;24.45;;;;;;;-141.84;83.11;20384.97;4994532;28;20227;-76
2023/06/09 04:13:21;;;;;;;25.63;23.17;;;;;;;-141.84;82.65;20374.81;4994281;28;20238;-75
2023/06/09 04:15:50;;;;;;;24.38;21.98;;;;;;;-141.84;82.41;20391.06;4993007;28;20657;-76
2023/06/09 04:18:19;;;;;;;26.38;23.75;;;;;;;-141.84;80.00;20413.44;4993266;28;20666;-76
2023/06/09 04:20:47;;;;;;;25.92;23.35;;;;;;;-141.84;78.79;20447.97;4993430;28;20290;-76
2023/06/09 04:23:16;;;;;;;25.52;23.13;;;;;;;-141.84;77.70;20478.47;4993487;28;20469;-76
2023/06/09 04:25:45;;;;;;;24.83;22.33;;;;;;;-141.84;79.03;20504.91;4993147;28;20214;-75
2023/06/09 04:28:14;;;;;;;24.45;22.13;;;;;;;-141.84;78.85;20486.59;4992980;28;20246;-77
2023/06/09 04:30:44;;;;;;;26.08;23.33;;;;;;;-141.84;77.86;20474.41;4988197;28;20216;-76
2023/06/09 04:33:13;;;;;;;22.40;20.30;;;;;;;-141.84;77.90;20496.78;5006653;28;20602;-75
2023/06/09 04:35:43;;;;;;;27.30;24.35;;;;;;;-141.84;76.88;20535.41;5010431;28;20206;-76
2023/06/09 04:38:11;;;;;;;24.10;21.73;;;;;;;-141.84;76.86;20576.03;4992898;28;20234;-75
2023/06/09 04:40:40;;;;;;;24.48;22.08;;;;;;;-141.84;76.48;20578.09;4993003;28;20306;-76
2023/06/09 04:43:09;;;;;;;22.70;20.60;;;;;;;-141.84;76.06;20565.88;4992618;28;20281;-76
2023/06/09 04:45:37;;;;;;;23.65;21.45;;;;;;;-141.84;75.68;20610.59;4992654;28;20671;-75
2023/06/09 04:48:08;;;;;;;22.27;20.13;;;;;;;-141.84;75.07;20639.06;4992633;28;20298;-76
2023/06/09 04:50:37;;;;;;;23.52;21.27;;;;;;;-141.84;74.69;20659.38;4992780;28;20608;-75
2023/06/09 04:53:07;;;;;;;20.65;18.75;;;;;;;-141.84;75.15;20704.13;4992789;28;20302;-75
2023/06/09 04:55:35;;;;;;;17.80;16.02;;;;;;;-141.84;72.28;20915.53;4995401;28;20207;-74
2023/06/09 04:58:04;;;;;;;19.95;17.85;;;;;;;-141.84;62.70;21346.53;4994754;28;20204;-75
2023/06/09 05:00:33;;;;;;;17.40;15.93;;;;;;;-141.84;61.00;21488.88;4992748;28;20242;-76
2023/06/09 05:03:02;;;;;;;16.25;14.73;;;;;;;-141.84;57.48;21806.06;4995553;28;20245;-76
2023/06/09 05:05:32;;;;;;;19.60;17.65;;;;;;;-141.84;53.33;22129.38;4992293;28;20191;-75
2023/06/09 05:08:01;;;;;;;16.92;15.27;;;;;;;-141.84;51.59;22320.53;4991944;28;20573;-75
2023/06/09 05:10:29;;;;;;;17.42;15.65;;;;;;;-141.84;49.03;22523.91;4993260;28;20211;-75
2023/06/09 05:12:58;;;;;;;16.33;14.82;;;;;;;-141.84;49.20;22605.25;4992456;28;20203;-76
2023/06/09 05:15:27;;;;;;;16.08;14.55;;;;;;;-141.84;47.90;22711.03;4992028;28;20705;-76
2023/06/09 05:17:57;;;;;;;13.30;12.10;;;;;;;-141.84;47.60;22717.13;4992307;28;20242;-74
2023/06/09 05:20:26;;;;;;;14.68;13.27;;;;;;;-141.84;47.60;22688.66;4992235;28;20290;-75
2023/06/09 05:22:56;;;;;;;15.27;13.98;;;;;;;-141.84;47.38;22747.63;4992205;28;20561;-76
2023/06/09 05:25:25;;;;;;;15.38;14.05;;;;;;;-141.84;45.57;22908.31;4993025;28;20231;-74
2023/06/09 05:27:53;;;;;;;15.40;14.10;;;;;;;-141.84;46.62;22776.09;4991703;28;20211;-76
2023/06/09 05:30:22;;;;;;;15.98;13.80;;;;;;;-141.84;46.33;22778.16;4992168;28;20286;-77
2023/06/09 05:32:50;;;;;;;15.07;13.70;;;;;;;-141.84;46.48;22767.97;5005782;28;20637;-78
2023/06/09 05:35:19;;;;;;;15.48;14.07;;;;;;;-141.84;47.06;22676.44;5011805;28;20253;-76
2023/06/09 05:37:51;;;;;;;14.77;12.88;;;;;;;-141.84;47.67;22485.28;5011505;28;20573;-77
2023/06/09 05:40:21;;;;;;;16.27;12.52;;;;;;;-141.84;48.76;22275.81;5011781;28;20207;-76
2023/06/09 05:42:50;;;;;;;14.70;13.40;;;;;;;-141.84;50.07;22127.34;4996315;28;20207;-78
2023/06/09 05:45:18;;;;;;;14.80;13.50;;;;;;;-141.84;50.73;21999.25;4991768;28;20603;-76
2023/06/09 05:47:48;;;;;;;13.43;12.23;;;;;;;-141.84;50.87;21915.88;4991894;28;20227;-75
2023/06/09 05:50:17;;;;;;;15.82;12.48;;;;;;;-141.84;52.01;21812.16;4991589;28;20655;-75
2023/06/09 05:52:46;;;;;;;12.93;11.70;;;;;;;-141.84;51.92;21783.69;4991864;28;20588;-77
2023/06/09 05:55:16;;;;;;;13.48;12.25;;;;;;;-141.84;52.53;21708.47;4991990;28;20262;-76
2023/06/09 05:57:46;;;;;;;12.00;10.90;;;;;;;-141.84;52.75;21722.69;4991775;28;20203;-77
2023/06/09 06:00:15;;;;;;;12.77;11.57;;;;;;;-141.84;53.30;21765.38;4991651;28;20219;-77
2023/06/09 06:02:44;;;;;;;13.43;10.75;;;;;;;-141.84;51.71;21797.94;4991340;28;20302;-76
2023/06/09 06:05:13;;;;;;;11.13;10.23;;;;;;;-141.84;51.86;21832.50;4991458;28;20238;-76
2023/06/09 06:07:42;;;;;;;13.02;10.68;;;;;;;-141.84;52.67;21838.59;4991322;28;20203;-78
2023/06/09 06:10:11;;;;;;;12.27;11.07;;;;;;;-141.84;53.39;21795.88;4977353;28;20232;-76
2023/06/09 06:12:40;;;;;;;11.00;10.00;;;;;;;-141.84;51.47;21850.78;4972171;28;20287;-76
2023/06/09 06:15:14;;;;;;;10.27;9.35;;;;;;;-141.84;52.21;21781.66;4972036;28;20192;-75
2023/06/09 06:17:42;;;;;;;15.82;10.70;;;;;;;-141.84;51.06;21877.22;4971985;28;20291;-75
2023/06/09 06:20:13;;;;;;;11.07;10.00;;;;;;;-141.84;51.47;21863.00;4972025;28;20234;-77
2023/06/09 06:22:43;;;;;;;11.30;10.20;;;;;;;-141.84;51.34;21852.81;4972339;28;20284;-74
2023/06/09 06:25:13;;;;;;;12.57;10.05;;;;;;;-141.84;50.00;21946.38;4971776;28;20223;-75
2023/06/09 06:27:42;;;;;;;10.98;9.90;;;;;;;-141.84;49.65;21915.88;4971871;28;20247;-76
2023/06/09 06:30:17;;;;;;;10.93;9.88;;;;;;;-141.84;49.03;21903.66;4990801;28;20198;-75
2023/06/09 06:32:52;;;;;;;10.35;9.40;;;;;;;-141.84;49.42;21976.88;5004460;28;20203;-75
2023/06/09 06:35:25;;;;;;;10.40;9.40;;;;;;;-141.84;50.36;22001.28;5010940;28;20198;-76
2023/06/09 06:37:54;;;;;;;10.27;9.30;;;;;;;-141.84;48.41;21993.13;5005803;28;20199;-75
2023/06/09 06:40:23;;;;;;;10.23;9.20;;;;;;;-141.84;48.46;21919.94;4991354;28;20289;-75
2023/06/09 06:42:51;;;;;;;9.25;8.27;;;;;;;-141.84;48.86;21934.16;4991513;28;20291;-75
2023/06/09 06:45:22;;;;;;;9.07;8.38;;;;;;;-141.84;48.57;21948.41;4991481;28;20554;-75
2023/06/09 06:47:52;;;;;;;9.13;8.20;;;;;;;-141.84;47.25;21936.19;4991330;28;20194;-76
2023/06/09 06:50:22;;;;;;;9.13;8.32;;;;;;;-141.84;48.37;21814.19;4991118;28;20275;-76
2023/06/09 06:52:54;;;;;;;8.95;8.07;;;;;;;-141.84;47.26;21816.22;4991333;28;20290;-77
2023/06/09 06:55:22;;;;;;;9.52;8.52;;;;;;;-141.84;47.50;21767.44;5000064;28;20207;-76
2023/06/09 06:57:52;;;;;;;9.38;8.52;;;;;;;-141.84;48.46;21745.06;4994758;28;20232;-76
2023/06/09 07:00:22;;;;;;;9.35;8.48;;;;;;;-141.84;47.60;21779.63;4995130;28;20722;-76
2023/06/09 07:02:51;;;;;;;9.35;8.32;;;;;;;-141.84;48.21;21787.75;4998243;28;20283;-75
2023/06/09 07:05:21;;;;;;;8.27;7.57;;;;;;;-141.84;48.96;21806.06;4995036;28;20239;-76
2023/06/09 07:07:49;;;;;;;8.65;7.63;;;;;;;-141.84;48.67;21838.59;4994829;28;20198;-75
2023/06/09 07:10:18;;;;;;;10.82;8.02;;;;;;;-141.84;49.42;21830.47;4994576;28;20647;-74
2023/06/09 07:12:46;;;;;;;9.40;8.50;;;;;;;-141.84;47.26;21942.31;4995187;28;20294;-76
2023/06/09 07:15:15;;;;;;;8.38;7.63;;;;;;;-141.84;47.19;21897.56;4994657;28;20206;-76
2023/06/09 07:17:45;;;;;;;8.50;7.70;;;;;;;-141.84;47.31;21921.97;4994445;28;20207;-75
2023/06/09 07:20:13;;;;;;;8.77;7.78;;;;;;;-141.84;47.65;21891.47;4994466;28;20223;-75
2023/06/09 07:22:42;;;;;;;8.90;8.10;;;;;;;-141.84;47.30;21924.00;4994576;28;20204;-75
2023/06/09 07:25:11;;;;;;;7.75;7.03;;;;;;;-141.84;47.88;21985.00;4994308;28;20898;-78
2023/06/09 07:27:39;;;;;;;8.32;7.43;;;;;;;-141.84;47.43;21993.13;4994583;28;20582;-77
2023/06/09 07:30:09;;;;;;;8.73;7.85;;;;;;;-141.84;47.52;22015.50;4994407;28;20231;-76
2023/06/09 07:32:39;;;;;;;8.57;7.75;;;;;;;-141.84;46.83;22041.94;5007620;28;20257;-76
2023/06/09 07:35:12;;;;;;;9.13;8.23;;;;;;;-141.84;46.66;22023.63;5000590;28;20241;-75
2023/06/09 07:37:42;;;;;;;9.50;8.60;;;;;;;-141.84;46.66;21978.91;5012443;28;20191;-74
2023/06/09 07:40:11;;;;;;;8.70;7.82;;;;;;;-141.84;46.89;22029.75;5013465;28;20243;-76
2023/06/09 07:42:49;;;;;;;8.73;7.82;;;;;;;-141.84;46.43;22056.19;5013585;28;20193;-74
2023/06/09 07:45:18;;;;;;;9.07;8.18;;;;;;;-141.84;45.09;22043.97;5013313;28;20183;-76
2023/06/09 07:47:47;;;;;;;8.55;7.50;;;;;;;-141.84;45.43;22062.28;5013364;28;20575;-76
2023/06/09 07:50:18;;;;;;;8.48;7.68;;;;;;;-141.84;44.26;22070.41;5008673;28;20199;-77
2023/06/09 07:52:46;;;;;;;9.02;8.00;;;;;;;-141.84;44.05;22046.00;4994126;28;20203;-76
2023/06/09 07:55:15;;;;;;;8.05;7.38;;;;;;;-141.84;44.13;22025.66;4993755;28;20211;-77
2023/06/09 07:57:45;;;;;;;7.68;6.95;;;;;;;-141.84;43.92;22013.47;4993395;28;20691;-76
2023/06/09 08:00:15;;;;;;;8.73;7.40;;;;;;;-141.84;44.29;22058.22;4993296;28;20207;-75
2023/06/09 08:02:44;;;;;;;7.88;7.05;;;;;;;-141.84;43.74;22037.88;4996688;28;20265;-58
2023/06/09 08:05:12;;;;;;;7.25;6.53;;;;;;;-141.84;43.95;22046.00;4991833;28;20273;-59
2023/06/09 08:07:42;;;;;;;8.00;7.20;;;;;;;-141.84;43.45;22100.91;4992967;28;20195;-59
2023/06/09 08:10:11;;;;;;;8.38;7.57;;;;;;;-141.84;43.58;22082.63;4993288;28;20292;-57
2023/06/09 08:12:40;;;;;;;9.65;8.05;;;;;;;-141.84;43.61;22078.53;4993378;28;20203;-59
2023/06/09 08:15:09;;;;;;;7.40;6.70;;;;;;;-141.84;43.90;22082.63;4989361;28;21114;-60
2023/06/09 08:17:38;;;;;;;7.97;7.28;;;;;;;-141.84;44.16;22084.66;4992763;28;20243;-58
2023/06/09 08:20:08;;;;;;;8.70;7.80;;;;;;;-141.84;43.59;22104.97;4992206;28;20227;-59
2023/06/09 08:22:37;;;;;;;7.70;7.10;;;;;;;-141.84;44.48;22133.44;4992604;28;20207;-59
2023/06/09 08:25:09;;;;;;;8.45;7.65;;;;;;;-141.84;43.16;22147.69;4992919;28;20214;-58
2023/06/09 08:27:38;;;;;;;7.45;6.80;;;;;;;-141.84;43.21;22168.03;4992966;28;20245;-58
2023/06/09 08:30:08;;;;;;;9.07;8.15;;;;;;;-141.84;44.40;22168.03;4992186;28;20239;-57
2023/06/09 08:32:39;;;;;;;9.40;8.45;;;;;;;-141.84;44.38;22212.75;5004636;28;20214;-58
2023/06/09 08:35:10;;;;;;;8.45;7.53;;;;;;;-141.84;44.31;22214.78;5012189;28;20285;-56
2023/06/09 08:37:39;;;;;;;9.88;8.32;;;;;;;-141.84;44.24;22239.19;5011821;28;20229;-58
2023/06/09 08:40:09;;;;;;;9.15;8.35;;;;;;;-141.84;43.33;22273.78;5011974;28;20293;-58
2023/06/09 08:42:39;;;;;;;8.82;8.13;;;;;;;-141.84;43.54;22259.53;5011928;28;20627;-58
2023/06/09 08:45:10;;;;;;;8.82;8.02;;;;;;;-141.84;43.50;22304.28;5011807;28;20206;-59
2023/06/09 08:47:42;;;;;;;10.85;8.40;;;;;;;-141.84;43.76;22279.88;5012016;28;20278;-59
2023/06/09 08:50:16;;;;;;;9.07;8.23;;;;;;;-141.84;42.72;22312.41;4996869;28;20194;-59
2023/06/09 08:52:45;;;;;;;9.15;8.25;;;;;;;-141.84;43.33;22281.91;5008241;28;20291;-59
2023/06/09 08:55:15;;;;;;;9.18;8.38;;;;;;;-141.84;43.09;22275.81;4992702;28;20290;-59
2023/06/09 08:57:44;;;;;;;8.55;7.85;;;;;;;-141.84;43.28;22257.50;4992068;28;20254;-55
2023/06/09 09:00:13;;;;;;;9.40;8.23;;;;;;;-141.84;43.72;22285.97;4991785;28;20231;-57
2023/06/09 09:02:43;;;;;;;8.90;8.13;;;;;;;-141.84;43.86;22277.84;4995078;28;20591;-56
2023/06/09 09:05:11;;;;;;;9.45;8.52;;;;;;;-141.84;44.22;22273.78;4991774;28;20298;-57
2023/06/09 09:07:41;;;;;;;13.10;9.07;;;;;;;-141.84;43.83;22263.59;4991645;28;20250;-58
2023/06/09 09:10:11;;;;;;;9.70;8.77;;;;;;;-141.84;43.33;22275.81;4991735;28;20619;-60
2023/06/09 09:12:59;;;;;;;9.05;8.25;;;;;;;-141.84;43.16;22283.94;4982542;28;20247;-59
2023/06/09 09:15:27;;;;;;;9.18;8.30;;;;;;;-141.84;43.83;22271.72;4972249;28;20251;-59
2023/06/09 09:17:57;;;;;;;8.60;7.80;;;;;;;-141.84;42.67;22308.34;4971844;28;20255;-59
2023/06/09 09:20:33;;;;;;;8.90;8.10;;;;;;;-141.84;43.48;22294.09;4984325;28;20195;-60
2023/06/09 09:23:03;;;;;;;9.85;9.00;;;;;;;-141.84;43.33;22324.59;4991665;28;20274;-59
2023/06/09 09:25:32;;;;;;;8.65;7.90;;;;;;;-141.84;42.78;22349.00;4991484;28;20243;-59
2023/06/09 09:28:04;;;;;;;8.85;8.00;;;;;;;-141.84;43.17;22371.38;4991358;28;20262;-59
2023/06/09 09:30:50;;;;;;;8.30;7.60;;;;;;;-141.84;42.02;22397.81;4991548;28;20542;-59
2023/06/09 09:33:21;;;;;;;8.48;7.57;;;;;;;-141.84;41.15;22438.50;5008825;28;20289;-58
2023/06/09 09:35:52;;;;;;;8.82;7.55;;;;;;;-141.84;41.02;22422.22;5007856;28;20283;-59
2023/06/09 09:38:24;;;;;;;8.50;7.70;;;;;;;-141.84;41.40;22436.47;4991392;28;20605;-58
2023/06/09 09:40:54;;;;;;;8.68;7.88;;;;;;;-141.84;40.62;22466.97;4991475;28;20281;-59
2023/06/09 09:43:27;;;;;;;8.32;7.53;;;;;;;-141.84;41.10;22397.81;4990961;28;20687;-60
2023/06/09 09:45:56;;;;;;;8.05;7.30;;;;;;;-141.84;41.74;22475.09;4991105;28;20179;-59
2023/06/09 09:48:25;;;;;;;8.90;8.10;;;;;;;-141.84;42.80;22511.72;4990990;28;20204;-59
2023/06/09 09:50:55;;;;;;;9.57;8.68;;;;;;;-141.84;43.33;22530.00;4990840;28;20207;-59
2023/06/09 09:53:25;;;;;;;8.90;8.18;;;;;;;-141.84;41.79;22507.66;4990990;28;20210;-59
2023/06/09 09:55:55;;;;;;;8.40;7.70;;;;;;;-141.84;40.89;22562.56;4991091;28;20235;-51
2023/06/09 09:58:31;;;;;;;8.05;7.32;;;;;;;-141.84;40.31;22564.59;4990676;28;20184;-52
2023/06/09 10:01:05;;;;;;;8.32;7.50;;;;;;;-141.84;40.04;22495.44;4990837;28;20257;-57
2023/06/09 10:03:35;;;;;;;7.65;7.05;;;;;;;-141.84;40.24;22550.34;4990819;28;20275;-58
2023/06/09 10:06:08;;;;;;;8.52;7.70;;;;;;;-141.84;40.40;22558.50;4990972;28;20192;-59
2023/06/09 10:08:39;;;;;;;8.73;7.57;;;;;;;-141.84;39.92;22572.72;4983681;28;20204;-58
2023/06/09 10:11:08;;;;;;;8.40;7.70;;;;;;;-141.84;39.78;22599.16;4971206;28;20189;-60
2023/06/09 10:13:39;;;;;;;8.48;7.75;;;;;;;-141.84;40.39;22586.97;4971379;28;20242;-58
2023/06/09 10:16:09;;;;;;;8.18;7.47;;;;;;;-141.84;39.45;22664.25;4971165;28;20243;-59
2023/06/09 10:18:41;;;;;;;10.05;7.22;;;;;;;-141.84;39.65;22645.94;4984381;28;20211;-58
2023/06/09 10:21:12;;;;;;;8.15;7.30;;;;;;;-141.84;39.65;22615.44;4989839;28;20327;-58
2023/06/09 10:23:41;;;;;;;8.02;7.32;;;;;;;-141.84;38.56;22721.19;4989872;28;20199;-59
2023/06/09 10:26:11;;;;;;;7.25;6.55;;;;;;;-141.84;39.13;22686.63;5001923;28;20214;-58
2023/06/09 10:28:40;;;;;;;8.18;7.47;;;;;;;-141.84;39.40;22698.81;4997115;28;20199;-59
2023/06/09 10:31:11;;;;;;;8.10;7.40;;;;;;;-141.84;38.97;22759.84;4989118;28;20293;-59
2023/06/09 10:33:44;;;;;;;8.65;7.85;;;;;;;-141.84;38.90;22749.66;4997872;28;20302;-59
2023/06/09 10:36:14;;;;;;;7.82;7.13;;;;;;;-141.84;40.02;22711.03;4991069;28;20187;-59
2023/06/09 10:38:44;;;;;;;8.38;7.50;;;;;;;-141.84;39.25;22723.22;4991183;28;20192;-59
2023/06/09 10:41:17;;;;;;;9.25;7.57;;;;;;;-141.84;39.70;22731.38;4991052;28;20262;-59
2023/06/09 10:44:17;;;;;;;7.95;7.35;;;;;;;-141.84;39.41;22782.22;4990334;28;20258;-59
2023/06/09 10:46:48;;;;;;;8.52;7.72;;;;;;;-141.84;39.46;22755.78;4995788;28;20290;-58
2023/06/09 10:49:38;;;;;;;7.97;7.28;;;;;;;-141.84;39.33;22745.59;5009731;28;20191;-60
2023/06/09 10:52:10;;;;;;;8.15;7.53;;;;;;;-141.84;38.84;22802.56;5010067;28;20638;-60
2023/06/09 10:54:38;;;;;;;8.13;7.38;;;;;;;-141.84;39.77;22802.56;5009892;28;20191;-58
2023/06/09 10:57:33;;;;;;;7.60;6.88;;;;;;;-141.84;39.69;22778.16;5010109;28;20202;-58
2023/06/09 11:00:14;;;;;;;8.15;7.35;;;;;;;-141.84;39.52;22774.06;5009662;28;20898;-60
2023/06/09 11:02:45;;;;;;;8.50;7.70;;;;;;;-141.84;39.13;22802.56;5000261;28;20302;-58
2023/06/09 11:05:15;;;;;;;7.78;7.07;;;;;;;-141.84;39.33;22822.88;4990187;28;20219;-59
2023/06/09 11:07:46;;;;;;;7.80;7.20;;;;;;;-141.84;39.03;22932.72;4990364;28;20206;-59
2023/06/09 11:10:36;;;;;;;7.47;6.78;;;;;;;-141.84;38.51;22920.53;4990015;28;20578;-59
2023/06/09 11:13:39;;;;;;;7.72;6.72;;;;;;;-141.84;37.91;22930.69;4990412;28;20270;-60
2023/06/09 11:16:10;;;;;;;6.93;6.30;;;;;;;-141.84;37.13;22928.66;4990316;28;20192;-60
2023/06/09 11:18:39;;;;;;;6.05;5.55;;;;;;;-141.84;37.10;22926.63;4989956;28;20746;-59
2023/06/09 11:21:09;;;;;;;7.65;6.80;;;;;;;-141.84;38.44;22912.38;4990201;28;20203;-60